createdAt,value
2023-09-27T00:00:07.333Z,14.66
2023-09-27T00:02:34.143Z,14.79
2023-09-27T00:05:01.995Z,14.74
2023-09-27T00:07:29.507Z,14.66
2023-09-27T00:09:59.463Z,14.70
2023-09-27T00:12:26.282Z,14.70
2023-09-27T00:14:53.009Z,14.68
2023-09-27T00:17:19.735Z,14.71
2023-09-27T00:19:46.529Z,14.71
2023-09-27T00:22:13.252Z,14.65
2023-09-27T00:24:40.637Z,14.58
2023-09-27T00:27:08.211Z,14.57
2023-09-27T00:29:35.907Z,14.52
2023-09-27T00:32:02.755Z,14.66
2023-09-27T00:34:29.632Z,14.70
2023-09-27T00:36:56.628Z,14.60
2023-09-27T00:39:23.299Z,14.56
2023-09-27T00:41:49.969Z,14.56
2023-09-27T00:44:18.365Z,14.47
2023-09-27T00:46:45.318Z,14.48
2023-09-27T00:49:12.487Z,14.51
2023-09-27T00:51:39.189Z,14.47
2023-09-27T00:54:08.900Z,14.42
2023-09-27T00:56:35.881Z,14.48
2023-09-27T00:59:03.527Z,14.40
2023-09-27T01:01:30.773Z,14.46
2023-09-27T01:03:59.011Z,14.43
2023-09-27T01:06:26.680Z,14.47
2023-09-27T01:08:53.647Z,14.36
2023-09-27T01:11:20.693Z,14.27
2023-09-27T01:13:47.393Z,14.32
2023-09-27T01:16:14.082Z,14.25
2023-09-27T01:18:41.456Z,14.17
2023-09-27T01:21:08.165Z,14.22
2023-09-27T01:23:37.705Z,14.15
2023-09-27T01:26:05.024Z,14.12
2023-09-27T01:28:32.918Z,13.99
2023-09-27T01:30:59.675Z,14.04
2023-09-27T01:33:27.078Z,14.01
2023-09-27T01:35:55.373Z,13.86
2023-09-27T01:38:22.405Z,13.86
2023-09-27T01:40:49.182Z,13.78
2023-09-27T01:43:15.914Z,13.84
2023-09-27T01:45:43.970Z,13.95
2023-09-27T01:48:10.976Z,13.97
2023-09-27T01:50:37.768Z,13.97
2023-09-27T01:53:04.995Z,14.04
2023-09-27T01:55:32.645Z,14.05
2023-09-27T01:58:01.654Z,14.00
2023-09-27T02:00:28.384Z,14.00
2023-09-27T02:02:57.375Z,13.94
2023-09-27T02:05:25.101Z,13.95
2023-09-27T02:07:52.032Z,13.90
2023-09-27T02:10:19.188Z,13.95
2023-09-27T02:12:46.058Z,13.87
2023-09-27T02:15:14.718Z,13.81
2023-09-27T02:17:43.770Z,13.80
2023-09-27T02:20:12.647Z,13.82
2023-09-27T02:22:42.908Z,13.81
2023-09-27T02:25:13.989Z,13.76
2023-09-27T02:27:41.451Z,13.64
2023-09-27T02:30:12.735Z,13.55
2023-09-27T02:32:42.091Z,13.70
2023-09-27T02:35:12.870Z,13.66
2023-09-27T02:37:40.619Z,13.66
2023-09-27T02:40:14.715Z,13.70
2023-09-27T02:42:42.683Z,13.68
2023-09-27T02:45:10.461Z,13.63
2023-09-27T02:47:38.193Z,13.57
2023-09-27T02:50:06.363Z,13.56
2023-09-27T02:52:33.671Z,13.54
2023-09-27T02:55:00.649Z,13.50
2023-09-27T02:57:27.413Z,13.56
2023-09-27T02:59:54.370Z,13.51
2023-09-27T03:02:21.631Z,13.45
2023-09-27T03:04:48.864Z,13.52
2023-09-27T03:07:16.901Z,13.52
2023-09-27T03:09:49.982Z,13.43
2023-09-27T03:12:16.685Z,13.40
2023-09-27T03:14:44.875Z,13.51
2023-09-27T03:17:11.777Z,13.46
2023-09-27T03:19:38.477Z,13.63
2023-09-27T03:22:07.944Z,13.58
2023-09-27T03:24:35.517Z,13.60
2023-09-27T03:27:04.281Z,13.57
2023-09-27T03:29:39.283Z,13.70
2023-09-27T03:32:06.476Z,13.66
2023-09-27T03:34:33.161Z,13.58
2023-09-27T03:36:59.883Z,13.48
2023-09-27T03:39:30.102Z,13.55
2023-09-27T03:41:57.805Z,13.61
2023-09-27T03:44:25.403Z,13.61
2023-09-27T03:46:52.263Z,13.54
2023-09-27T03:49:19.099Z,13.57
2023-09-27T03:51:45.959Z,13.53
2023-09-27T03:54:12.788Z,13.64
2023-09-27T03:56:39.482Z,13.60
2023-09-27T03:59:06.347Z,13.65
2023-09-27T04:01:33.199Z,13.63
2023-09-27T04:04:03.405Z,13.59
2023-09-27T04:06:30.122Z,13.79
2023-09-27T04:08:56.916Z,13.89
2023-09-27T04:11:23.579Z,14.06
2023-09-27T04:13:50.835Z,14.18
2023-09-27T04:16:17.599Z,14.29
2023-09-27T04:18:44.369Z,14.37
2023-09-27T04:21:12.312Z,14.31
2023-09-27T04:23:39.745Z,14.41
2023-09-27T04:26:06.942Z,14.38
2023-09-27T04:28:34.311Z,14.32
2023-09-27T04:31:01.831Z,14.27
2023-09-27T04:33:28.631Z,14.37
2023-09-27T04:35:55.387Z,14.41
2023-09-27T04:38:22.594Z,14.45
2023-09-27T04:40:52.820Z,14.47
2023-09-27T04:43:19.666Z,14.46
2023-09-27T04:45:46.665Z,14.55
2023-09-27T04:48:13.791Z,14.57
2023-09-27T04:50:41.338Z,14.63
2023-09-27T04:53:08.129Z,14.76
2023-09-27T04:55:35.304Z,14.87
2023-09-27T04:58:02.029Z,14.86
2023-09-27T05:00:28.741Z,15.03
2023-09-27T05:02:55.761Z,14.84
2023-09-27T05:05:22.469Z,14.88
2023-09-27T05:07:49.528Z,14.83
2023-09-27T05:10:16.826Z,14.85
2023-09-27T05:12:43.592Z,14.97
2023-09-27T05:15:10.897Z,15.15
2023-09-27T05:17:38.232Z,15.20
2023-09-27T05:20:13.474Z,15.11
2023-09-27T05:22:42.016Z,15.17
2023-09-27T05:25:09.594Z,15.17
2023-09-27T05:27:36.395Z,15.30
2023-09-27T05:30:04.954Z,15.18
2023-09-27T05:32:31.802Z,15.48
2023-09-27T05:34:58.825Z,15.16
2023-09-27T05:37:25.630Z,15.22
2023-09-27T05:39:52.732Z,15.20
2023-09-27T05:42:19.350Z,15.03
2023-09-27T05:44:46.848Z,15.12
2023-09-27T05:47:13.590Z,15.20
2023-09-27T05:49:40.922Z,15.39
2023-09-27T05:52:13.321Z,15.44
2023-09-27T05:54:40.521Z,15.62
2023-09-27T05:57:07.899Z,15.74
2023-09-27T05:59:35.082Z,15.59
2023-09-27T06:02:02.089Z,15.66
2023-09-27T06:04:28.768Z,15.84
2023-09-27T06:06:55.452Z,15.76
2023-09-27T06:09:34.400Z,15.87
2023-09-27T06:12:13.405Z,15.61
2023-09-27T06:14:40.290Z,16.15
2023-09-27T06:17:07.506Z,16.29
2023-09-27T06:19:35.021Z,16.35
2023-09-27T06:22:15.251Z,16.35
2023-09-27T06:24:42.259Z,16.51
2023-09-27T06:27:09.347Z,16.47
2023-09-27T06:29:36.066Z,16.51
2023-09-27T06:32:03.307Z,16.44
2023-09-27T06:34:30.269Z,16.48
2023-09-27T06:36:57.863Z,16.63
2023-09-27T06:39:27.646Z,16.65
2023-09-27T06:41:54.484Z,16.69
2023-09-27T06:44:21.279Z,16.70
2023-09-27T06:46:49.536Z,16.65
2023-09-27T06:49:18.163Z,16.77
2023-09-27T06:51:45.439Z,16.86
2023-09-27T06:54:12.357Z,17.01
2023-09-27T06:56:39.269Z,17.26
2023-09-27T06:59:07.018Z,17.18
2023-09-27T07:01:33.851Z,17.22
2023-09-27T07:04:04.824Z,17.23
2023-09-27T07:06:31.767Z,17.40
2023-09-27T07:08:59.295Z,17.29
2023-09-27T07:11:26.580Z,17.36
2023-09-27T07:13:53.621Z,17.20
2023-09-27T07:16:30.984Z,17.41
2023-09-27T07:19:01.190Z,17.68
2023-09-27T07:21:29.475Z,17.88
2023-09-27T07:23:59.523Z,17.93
2023-09-27T07:26:26.313Z,18.01
2023-09-27T07:28:53.391Z,18.06
2023-09-27T07:31:41.496Z,18.27
2023-09-27T07:34:08.282Z,17.41
2023-09-27T07:36:35.187Z,17.74
2023-09-27T07:39:07.237Z,18.05
2023-09-27T07:41:36.705Z,17.97
2023-09-27T07:44:06.208Z,17.93
2023-09-27T07:46:33.014Z,17.92
2023-09-27T07:49:01.733Z,18.06
2023-09-27T07:51:28.840Z,18.02
2023-09-27T07:54:25.686Z,18.35
2023-09-27T07:57:12.825Z,18.30
2023-09-27T07:59:39.863Z,18.20
2023-09-27T08:02:06.966Z,18.56
2023-09-27T08:04:33.774Z,18.56
2023-09-27T08:07:00.542Z,18.31
2023-09-27T08:09:40.599Z,18.43
2023-09-27T08:12:08.634Z,18.59
2023-09-27T08:14:38.441Z,18.72
2023-09-27T08:17:06.221Z,18.64
2023-09-27T08:19:33.922Z,18.72
2023-09-27T08:22:00.768Z,18.86
2023-09-27T08:24:27.548Z,18.90
2023-09-27T08:26:54.376Z,18.84
2023-09-27T08:29:22.838Z,19.05
2023-09-27T08:31:49.667Z,19.22
2023-09-27T08:34:17.584Z,19.11
2023-09-27T08:36:50.153Z,19.41
2023-09-27T08:39:19.435Z,19.22
2023-09-27T08:41:46.191Z,19.15
2023-09-27T08:44:13.249Z,19.48
2023-09-27T08:46:40.988Z,19.76
2023-09-27T08:49:10.083Z,19.37
2023-09-27T08:51:40.983Z,19.55
2023-09-27T08:54:10.906Z,19.52
2023-09-27T08:56:37.748Z,19.59
2023-09-27T08:59:06.232Z,19.72
2023-09-27T09:01:36.186Z,19.45
2023-09-27T09:04:03.942Z,19.37
2023-09-27T09:06:30.928Z,19.59
2023-09-27T09:08:57.977Z,19.61
2023-09-27T09:11:24.999Z,19.62
2023-09-27T09:14:06.432Z,19.65
2023-09-27T09:16:48.880Z,19.73
2023-09-27T09:19:41.729Z,20.03
2023-09-27T09:22:12.528Z,19.97
2023-09-27T09:24:44.983Z,20.00
2023-09-27T09:27:17.659Z,20.23
2023-09-27T09:29:49.846Z,20.12
2023-09-27T09:32:29.507Z,20.16
2023-09-27T09:34:56.780Z,20.18
2023-09-27T09:37:25.592Z,20.26
2023-09-27T09:39:54.138Z,20.35
2023-09-27T09:42:33.046Z,20.50
2023-09-27T09:45:13.058Z,20.36
2023-09-27T09:47:41.599Z,20.36
2023-09-27T09:50:10.121Z,20.61
2023-09-27T09:52:40.478Z,20.74
2023-09-27T09:55:22.733Z,20.35
2023-09-27T09:58:55.551Z,20.47
2023-09-27T10:01:23.647Z,20.44
2023-09-27T10:03:53.463Z,20.79
2023-09-27T10:06:32.538Z,20.76
2023-09-27T10:09:15.724Z,20.72
2023-09-27T10:11:44.424Z,20.72
2023-09-27T10:14:11.906Z,20.75
2023-09-27T10:16:39.193Z,20.91
2023-09-27T10:19:06.928Z,21.25
2023-09-27T10:21:34.003Z,21.18
2023-09-27T10:24:02.654Z,21.06
2023-09-27T10:26:30.207Z,21.35
2023-09-27T10:29:07.877Z,21.43
2023-09-27T10:31:39.475Z,21.47
2023-09-27T10:34:29.127Z,21.53
2023-09-27T10:37:10.479Z,21.09
2023-09-27T10:43:35.396Z,21.09
2023-09-27T10:46:05.785Z,21.50
2023-09-27T10:48:32.704Z,21.91
2023-09-27T10:50:59.828Z,21.63
2023-09-27T10:53:28.031Z,21.71
2023-09-27T10:55:54.921Z,21.74
2023-09-27T10:58:21.675Z,21.77
2023-09-27T11:00:58.893Z,21.90
2023-09-27T11:03:25.905Z,21.88
2023-09-27T11:05:52.932Z,21.89
2023-09-27T11:08:24.326Z,21.86
2023-09-27T11:10:54.539Z,21.92
2023-09-27T11:13:22.698Z,21.92
2023-09-27T11:15:49.676Z,21.98
2023-09-27T11:18:16.762Z,22.25
2023-09-27T11:20:44.056Z,22.40
2023-09-27T11:23:10.921Z,22.50
2023-09-27T11:25:39.250Z,22.53
2023-09-27T11:28:06.291Z,22.46
2023-09-27T11:30:35.788Z,22.22
2023-09-27T11:33:11.965Z,22.52
2023-09-27T11:35:47.628Z,22.08
2023-09-27T11:38:21.943Z,22.08
2023-09-27T11:40:50.047Z,22.20
2023-09-27T11:43:17.076Z,22.10
2023-09-27T11:45:45.024Z,22.29
2023-09-27T11:48:12.243Z,22.49
2023-09-27T11:50:41.910Z,22.64
2023-09-27T11:53:12.230Z,22.79
2023-09-27T11:55:39.262Z,22.79
2023-09-27T11:58:05.978Z,22.67
2023-09-27T12:00:33.417Z,22.21
2023-09-27T12:03:00.355Z,22.30
2023-09-27T12:05:28.347Z,22.27
2023-09-27T12:07:56.499Z,22.26
2023-09-27T12:10:23.684Z,22.53
2023-09-27T12:12:50.772Z,22.70
2023-09-27T12:15:17.710Z,22.77
2023-09-27T12:17:44.891Z,22.97
2023-09-27T12:20:26.657Z,22.85
2023-09-27T12:22:58.534Z,22.80
2023-09-27T12:25:28.620Z,22.82
2023-09-27T12:27:55.289Z,22.86
2023-09-27T12:30:22.106Z,22.91
2023-09-27T12:32:49.139Z,22.95
2023-09-27T12:35:16.061Z,22.98
2023-09-27T12:37:42.812Z,22.90
2023-09-27T12:40:10.245Z,23.12
2023-09-27T12:42:37.032Z,23.13
2023-09-27T12:45:06.719Z,22.88
2023-09-27T12:47:33.774Z,22.50
2023-09-27T12:50:04.626Z,22.26
2023-09-27T12:52:32.437Z,22.27
2023-09-27T12:55:02.365Z,22.28
2023-09-27T12:57:29.158Z,22.24
2023-09-27T12:59:57.149Z,22.14
2023-09-27T13:02:23.963Z,22.14
2023-09-27T13:04:50.691Z,22.15
2023-09-27T13:07:18.366Z,22.28
2023-09-27T13:09:45.837Z,22.55
2023-09-27T13:12:12.616Z,22.23
2023-09-27T13:14:39.344Z,22.41
2023-09-27T13:17:06.241Z,22.16
2023-09-27T13:19:33.095Z,22.51
2023-09-27T13:21:59.742Z,22.61
2023-09-27T13:24:26.552Z,22.73
2023-09-27T13:26:56.354Z,22.54
2023-09-27T13:29:23.315Z,22.49
2023-09-27T13:31:51.496Z,22.56
2023-09-27T13:34:18.521Z,22.80
2023-09-27T13:36:45.884Z,22.60
2023-09-27T13:39:20.275Z,22.51
2023-09-27T13:41:47.803Z,22.48
2023-09-27T13:44:15.002Z,22.25
2023-09-27T13:46:42.234Z,22.25
2023-09-27T13:49:09.918Z,22.23
2023-09-27T13:51:37.870Z,22.29
2023-09-27T13:54:08.799Z,22.02
2023-09-27T13:56:36.724Z,22.00
2023-09-27T13:59:05.080Z,21.97
2023-09-27T14:01:32.637Z,21.78
2023-09-27T14:04:00.393Z,22.05
2023-09-27T14:06:27.456Z,21.71
2023-09-27T14:08:54.579Z,21.76
2023-09-27T14:11:22.120Z,21.68
2023-09-27T14:13:49.156Z,22.03
2023-09-27T14:16:19.918Z,21.88
2023-09-27T14:18:46.844Z,22.08
2023-09-27T14:21:14.892Z,22.00
2023-09-27T14:23:44.163Z,22.03
2023-09-27T14:26:12.223Z,22.05
2023-09-27T14:28:39.153Z,22.07
2023-09-27T14:31:06.650Z,21.94
2023-09-27T14:36:04.290Z,21.75
2023-09-27T14:38:35.367Z,21.84
2023-09-27T14:41:08.433Z,21.79
2023-09-27T14:43:36.564Z,21.77
2023-09-27T14:46:03.388Z,21.92
2023-09-27T14:48:33.037Z,21.81
2023-09-27T14:50:59.838Z,21.89
2023-09-27T14:53:26.863Z,21.94
2023-09-27T14:55:53.695Z,21.99
2023-09-27T14:58:21.816Z,21.78
2023-09-27T15:00:48.987Z,21.82
2023-09-27T15:03:15.964Z,21.68
2023-09-27T15:05:42.883Z,21.68
2023-09-27T15:08:09.794Z,21.63
2023-09-27T15:10:36.666Z,21.50
2023-09-27T15:13:06.301Z,21.25
2023-09-27T15:15:33.189Z,21.20
2023-09-27T15:17:59.967Z,21.14
2023-09-27T15:20:26.652Z,21.19
2023-09-27T15:22:53.980Z,21.00
2023-09-27T15:25:21.942Z,20.86
2023-09-27T15:27:49.104Z,20.92
2023-09-27T15:30:19.014Z,20.90
2023-09-27T15:32:45.726Z,20.82
2023-09-27T15:35:13.468Z,20.59
2023-09-27T15:37:51.413Z,20.46
2023-09-27T15:40:18.284Z,20.34
2023-09-27T15:42:44.961Z,20.27
2023-09-27T15:45:11.843Z,20.41
2023-09-27T15:47:38.669Z,20.33
2023-09-27T15:50:06.190Z,20.19
2023-09-27T15:52:35.266Z,20.16
2023-09-27T15:55:06.203Z,19.97
2023-09-27T15:57:32.959Z,19.92
2023-09-27T15:59:59.828Z,20.01
2023-09-27T16:02:26.593Z,19.80
2023-09-27T16:04:54.966Z,19.75
2023-09-27T16:07:23.445Z,19.66
2023-09-27T16:09:50.245Z,19.76
2023-09-27T16:12:17.519Z,19.67
2023-09-27T16:14:44.305Z,19.64
2023-09-27T16:17:11.138Z,19.64
2023-09-27T16:19:38.248Z,19.52
2023-09-27T16:22:05.142Z,19.52
2023-09-27T16:24:32.001Z,19.29
2023-09-27T16:27:00.782Z,19.36
2023-09-27T16:29:27.461Z,19.46
2023-09-27T16:31:54.768Z,19.28
2023-09-27T16:34:21.835Z,19.20
2023-09-27T16:36:50.851Z,19.31
2023-09-27T16:39:17.784Z,19.19
2023-09-27T16:41:44.594Z,19.27
2023-09-27T16:44:11.441Z,19.36
2023-09-27T16:46:38.100Z,19.23
2023-09-27T16:49:05.246Z,19.08
2023-09-27T16:51:32.098Z,19.16
2023-09-27T16:53:58.963Z,18.90
2023-09-27T16:56:25.927Z,18.99
2023-09-27T16:58:52.705Z,18.83
2023-09-27T17:01:22.034Z,18.93
2023-09-27T17:03:49.700Z,18.88
2023-09-27T17:06:20.192Z,18.95
2023-09-27T17:08:48.461Z,18.62
2023-09-27T17:11:23.586Z,18.75
2023-09-27T17:13:51.386Z,18.87
2023-09-27T17:16:27.711Z,18.82
2023-09-27T17:18:55.056Z,18.93
2023-09-27T17:21:22.159Z,18.74
2023-09-27T17:23:50.063Z,18.84
2023-09-27T17:26:17.772Z,18.79
2023-09-27T17:28:44.613Z,18.58
2023-09-27T17:31:11.495Z,18.72
2023-09-27T17:33:38.675Z,18.71
2023-09-27T17:36:06.413Z,18.63
2023-09-27T17:38:33.251Z,18.55
2023-09-27T17:41:00.017Z,18.49
2023-09-27T17:43:26.903Z,18.50
2023-09-27T17:45:54.480Z,18.53
2023-09-27T17:48:22.211Z,18.54
2023-09-27T17:50:49.660Z,18.45
2023-09-27T17:53:19.209Z,18.46
2023-09-27T17:55:46.199Z,18.46
2023-09-27T17:58:13.073Z,18.50
2023-09-27T18:00:39.906Z,18.49
2023-09-27T18:03:07.067Z,18.43
2023-09-27T18:05:34.317Z,18.26
2023-09-27T18:08:01.251Z,18.34
2023-09-27T18:10:30.307Z,18.48
2023-09-27T18:12:57.451Z,18.36
2023-09-27T18:15:28.298Z,18.16
2023-09-27T18:17:56.104Z,18.19
2023-09-27T18:20:23.093Z,18.10
2023-09-27T18:22:49.946Z,18.19
2023-09-27T18:25:18.147Z,18.13
2023-09-27T18:27:45.050Z,18.15
2023-09-27T18:30:12.421Z,18.11
2023-09-27T18:32:39.258Z,18.06
2023-09-27T18:35:06.599Z,18.11
2023-09-27T18:37:34.151Z,18.04
2023-09-27T18:40:06.442Z,18.03
2023-09-27T18:42:33.411Z,18.03
2023-09-27T18:45:00.027Z,18.04
2023-09-27T18:47:26.989Z,17.92
2023-09-27T18:49:54.183Z,18.06
2023-09-27T18:52:21.039Z,18.05
2023-09-27T18:54:49.052Z,18.02
2023-09-27T18:57:15.824Z,17.89
2023-09-27T18:59:42.505Z,17.94
2023-09-27T19:02:09.245Z,17.91
2023-09-27T19:04:36.108Z,17.81
2023-09-27T19:07:02.908Z,17.83
2023-09-27T19:09:29.737Z,17.74
2023-09-27T19:11:56.905Z,17.72
2023-09-27T19:14:23.676Z,17.70
2023-09-27T19:16:51.000Z,17.63
2023-09-27T19:19:17.643Z,17.69
2023-09-27T19:21:44.461Z,17.65
2023-09-27T19:24:11.238Z,17.57
2023-09-27T19:26:39.601Z,17.52
2023-09-27T19:29:06.353Z,17.57
2023-09-27T19:31:33.354Z,17.63
2023-09-27T19:34:01.365Z,17.65
2023-09-27T19:36:28.177Z,17.59
2023-09-27T19:38:55.098Z,17.59
2023-09-27T19:41:22.059Z,17.71
2023-09-27T19:43:49.103Z,17.69
2023-09-27T19:46:20.644Z,17.69
2023-09-27T19:48:47.389Z,17.65
2023-09-27T19:51:27.497Z,17.68
2023-09-27T19:53:55.402Z,17.58
2023-09-27T19:56:22.882Z,17.71
2023-09-27T19:58:49.996Z,17.69
2023-09-27T20:01:32.536Z,17.63
2023-09-27T20:03:59.758Z,17.54
2023-09-27T20:06:26.896Z,17.41
2023-09-27T20:08:53.618Z,17.48
2023-09-27T20:11:20.921Z,17.56
2023-09-27T20:13:48.351Z,17.47
2023-09-27T20:16:15.919Z,17.44
2023-09-27T20:18:42.558Z,17.37
2023-09-27T20:21:09.294Z,17.37
2023-09-27T20:23:36.086Z,17.34
2023-09-27T20:26:03.294Z,17.39
2023-09-27T20:28:30.260Z,17.41
2023-09-27T20:30:57.072Z,17.42
2023-09-27T20:33:24.012Z,17.35
2023-09-27T20:35:50.935Z,17.23
2023-09-27T20:38:17.844Z,17.33
2023-09-27T20:40:44.760Z,17.31
2023-09-27T20:43:11.506Z,17.35
2023-09-27T20:45:38.521Z,17.35
2023-09-27T20:48:05.674Z,17.33
2023-09-27T20:50:32.637Z,17.20
2023-09-27T20:52:59.420Z,17.27
2023-09-27T20:55:26.285Z,17.25
2023-09-27T20:57:53.122Z,17.09
2023-09-27T21:00:23.808Z,17.14
2023-09-27T21:02:50.670Z,17.15
2023-09-27T21:05:17.601Z,17.15
2023-09-27T21:07:44.509Z,17.09
2023-09-27T21:10:11.432Z,17.05
2023-09-27T21:12:38.162Z,16.85
2023-09-27T21:15:05.542Z,16.79
2023-09-27T21:17:32.353Z,16.58
2023-09-27T21:19:59.267Z,16.51
2023-09-27T21:22:26.132Z,16.58
2023-09-27T21:24:53.035Z,16.70
2023-09-27T21:27:19.917Z,16.61
2023-09-27T21:29:47.052Z,16.50
2023-09-27T21:32:14.403Z,16.48
2023-09-27T21:34:41.933Z,16.54
2023-09-27T21:37:08.810Z,16.55
2023-09-27T21:39:36.693Z,16.36
2023-09-27T21:42:03.605Z,16.29
2023-09-27T21:44:34.477Z,16.47
2023-09-27T21:47:01.168Z,16.54
2023-09-27T21:49:28.055Z,16.56
2023-09-27T21:51:59.543Z,16.59
2023-09-27T21:54:30.062Z,16.62
2023-09-27T21:56:56.922Z,16.59
2023-09-27T21:59:23.762Z,16.59
2023-09-27T22:01:50.608Z,16.46
2023-09-27T22:04:17.706Z,16.41
2023-09-27T22:06:46.517Z,16.39
2023-09-27T22:09:13.560Z,16.19
2023-09-27T22:11:40.650Z,16.34
2023-09-27T22:14:08.000Z,16.33
2023-09-27T22:16:35.162Z,16.43
2023-09-27T22:19:02.422Z,16.37
2023-09-27T22:21:31.474Z,16.41
2023-09-27T22:24:12.554Z,16.39
2023-09-27T22:26:40.468Z,16.40
2023-09-27T22:29:10.711Z,16.36
2023-09-27T22:31:41.199Z,16.34
2023-09-27T22:34:26.098Z,16.31
2023-09-27T22:36:53.609Z,16.34
2023-09-27T22:39:20.909Z,16.33
2023-09-27T22:41:49.723Z,16.32
2023-09-27T22:44:23.814Z,16.28
2023-09-27T22:46:52.737Z,16.30
2023-09-27T22:49:21.049Z,16.22
2023-09-27T22:51:48.209Z,16.18
2023-09-27T22:54:16.065Z,16.17
2023-09-27T22:56:47.128Z,16.08
2023-09-27T22:59:14.806Z,16.14
2023-09-27T23:01:43.852Z,16.09
2023-09-27T23:04:16.011Z,16.12
2023-09-27T23:07:01.827Z,16.12
2023-09-27T23:09:35.571Z,16.01
2023-09-27T23:12:20.500Z,15.88
2023-09-27T23:15:06.902Z,15.91
2023-09-27T23:17:56.551Z,15.92
2023-09-27T23:20:30.062Z,15.94
2023-09-27T23:22:58.908Z,15.89
2023-09-27T23:25:44.547Z,15.84
2023-09-27T23:28:18.790Z,15.82
2023-09-27T23:30:51.421Z,15.82
2023-09-27T23:33:18.560Z,15.72
2023-09-27T23:35:45.710Z,15.45
2023-09-27T23:38:31.146Z,15.51
2023-09-27T23:41:01.949Z,15.41
2023-09-27T23:43:43.987Z,15.23
2023-09-27T23:46:24.631Z,15.28
2023-09-27T23:48:54.358Z,15.36
2023-09-27T23:51:21.556Z,15.39
2023-09-27T23:53:48.447Z,15.37
2023-09-27T23:56:16.862Z,15.53
2023-09-27T23:58:44.851Z,15.69
